Time,TemperatureF,DewpointF,PressureIn,WindDirection,WindDirectionDegrees,WindSpeedMPH,WindSpeedGustMPH,Humidity,HourlyPrecipIn,Conditions,Clouds,dailyrainin,SoftwareType,DateUTC
2013-04-08 00:00:00,47.3,43.6,30.10,SW,224,0.0,0.0,87,0.00,,,0.00,Wunderground v.1.15,2013-04-08 04:00:00,
2013-04-08 00:03:00,47.3,43.9,30.10,SW,224,0.0,0.0,88,0.00,,,0.00,Wunderground v.1.15,2013-04-08 04:03:00,
2013-04-08 00:08:00,47.2,43.5,30.10,SW,224,0.0,0.0,87,0.00,,,0.00,Wunderground v.1.15,2013-04-08 04:08:00,
2013-04-08 00:09:00,47.2,43.5,30.10,SW,224,0.0,0.0,87,0.00,,,0.00,Wunderground v.1.15,2013-04-08 04:09:00,
2013-04-08 00:14:00,47.0,43.6,30.10,SW,224,0.0,0.0,88,0.00,,,0.00,Wunderground v.1.15,2013-04-08 04:14:00,
2013-04-08 00:20:00,47.1,44.0,30.10,SW,224,0.0,0.0,89,0.00,,,0.00,Wunderground v.1.15,2013-04-08 04:20:00,
2013-04-08 00:26:00,47.2,43.5,30.10,SW,224,0.0,0.0,87,0.00,,,0.00,Wunderground v.1.15,2013-04-08 04:26:00,
2013-04-08 00:32:00,47.1,43.7,30.10,SW,224,0.0,0.0,88,0.00,,,0.00,Wunderground v.1.15,2013-04-08 04:32:00,
2013-04-08 00:37:00,47.0,43.6,30.10,SW,224,0.0,0.0,88,0.00,,,0.00,Wunderground v.1.15,2013-04-08 04:37:00,
2013-04-08 00:43:00,46.8,43.4,30.11,SW,224,0.0,0.0,88,0.00,,,0.00,Wunderground v.1.15,2013-04-08 04:43:00,
2013-04-08 00:49:00,46.6,43.5,30.11,SW,224,0.0,0.0,89,0.00,,,0.00,Wunderground v.1.15,2013-04-08 04:49:00,
2013-04-08 00:55:00,46.5,43.1,30.10,SW,224,0.0,0.0,88,0.00,,,0.00,Wunderground v.1.15,2013-04-08 04:55:00,
2013-04-08 01:00:00,46.3,42.9,30.11,SW,224,0.0,0.0,88,0.00,,,0.00,Wunderground v.1.15,2013-04-08 05:00:00,
2013-04-08 01:05:00,46.0,42.6,30.10,SW,224,0.0,0.0,88,0.00,,,0.00,Wunderground v.1.15,2013-04-08 05:05:00,
2013-04-08 01:11:00,45.9,42.8,30.11,SW,224,0.0,0.0,89,0.00,,,0.00,Wunderground v.1.15,2013-04-08 05:11:00,
2013-04-08 01:16:00,45.7,42.6,30.11,SW,224,0.0,0.0,89,0.00,,,0.00,Wunderground v.1.15,2013-04-08 05:16:00,
2013-04-08 01:22:00,45.5,42.7,30.11,SW,224,0.0,0.0,90,0.00,,,0.00,Wunderground v.1.15,2013-04-08 05:22:00,
2013-04-08 01:28:00,45.5,43.0,30.11,SW,224,0.0,0.0,91,0.00,,,0.00,Wunderground v.1.15,2013-04-08 05:28:00,
2013-04-08 01:34:00,45.6,43.1,30.11,SW,224,0.0,0.0,91,0.00,,,0.00,Wunderground v.1.15,2013-04-08 05:34:00,
2013-04-08 01:40:00,45.5,43.0,30.11,SW,224,0.0,0.0,91,0.00,,,0.00,Wunderground v.1.15,2013-04-08 05:40:00,
2013-04-08 01:45:00,45.4,42.9,30.11,SW,224,0.0,0.0,91,0.00,,,0.00,Wunderground v.1.15,2013-04-08 05:45:00,
2013-04-08 01:51:00,45.3,42.8,30.11,SW,224,0.0,0.0,91,0.00,,,0.00,Wunderground v.1.15,2013-04-08 05:51:00,
2013-04-08 01:56:00,45.3,43.1,30.11,SW,224,0.0,0.0,92,0.00,,,0.00,Wunderground v.1.15,2013-04-08 05:56:00,
2013-04-08 02:01:00,45.1,42.6,30.11,SW,224,0.0,0.0,91,0.00,,,0.00,Wunderground v.1.15,2013-04-08 06:01:00,
2013-04-08 02:06:00,45.1,42.9,30.11,SW,224,0.0,0.0,92,0.00,,,0.00,Wunderground v.1.15,2013-04-08 06:06:00,
2013-04-08 02:11:00,45.0,42.8,30.11,SW,224,0.0,0.0,92,0.00,,,0.00,Wunderground v.1.15,2013-04-08 06:11:00,
2013-04-08 02:17:00,44.9,42.7,30.11,SW,224,0.0,0.0,92,0.00,,,0.00,Wunderground v.1.15,2013-04-08 06:17:00,
2013-04-08 02:22:00,44.7,42.5,30.11,SW,224,0.0,0.0,92,0.00,,,0.00,Wunderground v.1.15,2013-04-08 06:22:00,
2013-04-08 02:27:00,44.8,42.9,30.11,SW,224,0.0,0.0,93,0.00,,,0.00,Wunderground v.1.15,2013-04-08 06:27:00,
2013-04-08 02:32:00,44.8,42.9,30.11,SW,224,0.0,0.0,93,0.00,,,0.00,Wunderground v.1.15,2013-04-08 06:32:00,
2013-04-08 02:37:00,44.8,42.6,30.11,SW,224,0.0,0.0,92,0.00,,,0.00,Wunderground v.1.15,2013-04-08 06:37:00,
2013-04-08 02:42:00,44.7,42.5,30.10,SW,224,0.0,0.0,92,0.00,,,0.00,Wunderground v.1.15,2013-04-08 06:42:00,
2013-04-08 02:47:00,44.6,42.7,30.11,SW,224,0.0,0.0,93,0.00,,,0.00,Wunderground v.1.15,2013-04-08 06:47:00,
2013-04-08 02:52:00,44.6,42.4,30.10,WSW,240,0.0,0.0,92,0.00,,,0.00,Wunderground v.1.15,2013-04-08 06:52:00,
2013-04-08 02:57:00,44.6,42.7,30.10,WSW,240,0.0,0.0,93,0.00,,,0.00,Wunderground v.1.15,2013-04-08 06:57:00,
2013-04-08 03:02:00,44.5,42.3,30.10,WSW,240,0.0,0.0,92,0.00,,,0.00,Wunderground v.1.15,2013-04-08 07:02:00,
2013-04-08 03:07:00,44.4,42.5,30.10,WSW,240,0.0,0.0,93,0.00,,,0.00,Wunderground v.1.15,2013-04-08 07:07:00,
2013-04-08 03:12:00,44.7,42.8,30.10,WSW,240,0.0,0.0,93,0.00,,,0.00,Wunderground v.1.15,2013-04-08 07:12:00,
2013-04-08 03:17:00,44.8,42.9,30.10,WSW,240,0.0,0.0,93,0.00,,,0.00,Wunderground v.1.15,2013-04-08 07:17:00,
2013-04-08 03:22:00,45.5,43.9,30.10,ESE,113,0.0,1.0,94,0.00,,,0.00,Wunderground v.1.15,2013-04-08 07:22:00,
2013-04-08 03:27:00,46.0,44.4,30.10,NW,305,0.0,1.0,94,0.00,,,0.00,Wunderground v.1.15,2013-04-08 07:27:00,
2013-04-08 03:32:00,46.6,45.2,30.10,NW,305,0.0,0.0,95,0.00,,,0.00,Wunderground v.1.15,2013-04-08 07:32:00,
2013-04-08 03:37:00,47.5,46.1,30.10,NW,304,0.0,0.0,95,0.00,,,0.00,Wunderground v.1.15,2013-04-08 07:37:00,
2013-04-08 03:42:00,48.8,47.7,30.10,SSW,197,0.0,1.0,96,0.00,,,0.00,Wunderground v.1.15,2013-04-08 07:42:00,
2013-04-08 03:47:00,49.5,47.8,30.10,South,172,0.0,1.0,94,0.00,,,0.00,Wunderground v.1.15,2013-04-08 07:47:00,
2013-04-08 03:52:00,50.0,47.8,30.10,ENE,75,0.0,1.0,92,0.00,,,0.00,Wunderground v.1.15,2013-04-08 07:52:00,
2013-04-08 03:57:00,50.6,48.7,30.10,SSW,205,2.0,2.0,93,0.00,,,0.00,Wunderground v.1.15,2013-04-08 07:57:00,
2013-04-08 04:02:00,51.4,49.4,30.10,South,190,0.0,1.0,93,0.00,,,0.00,Wunderground v.1.15,2013-04-08 08:02:00,
2013-04-08 04:07:00,52.0,49.7,30.10,SSW,208,0.0,1.0,92,0.00,,,0.00,Wunderground v.1.15,2013-04-08 08:07:00,
2013-04-08 04:12:00,52.4,49.8,30.10,West,281,0.0,1.0,91,0.00,,,0.00,Wunderground v.1.15,2013-04-08 08:12:00,
2013-04-08 04:17:00,52.7,49.8,30.10,WNW,295,0.0,1.0,90,0.00,,,0.00,Wunderground v.1.15,2013-04-08 08:17:00,
2013-04-08 04:23:00,53.1,50.2,30.10,SW,219,0.0,1.0,90,0.00,,,0.00,Wunderground v.1.15,2013-04-08 08:23:00,
2013-04-08 04:28:00,53.3,50.4,30.10,SW,219,0.0,1.0,90,0.00,,,0.00,Wunderground v.1.15,2013-04-08 08:28:00,
2013-04-08 04:33:00,53.6,51.0,30.10,SW,224,1.0,2.0,91,0.00,,,0.00,Wunderground v.1.15,2013-04-08 08:33:00,
2013-04-08 04:38:00,54.1,50.9,30.10,SW,214,0.0,2.0,89,0.00,,,0.00,Wunderground v.1.15,2013-04-08 08:38:00,
2013-04-08 04:43:00,54.3,51.4,30.10,WSW,252,1.0,3.0,90,0.00,,,0.00,Wunderground v.1.15,2013-04-08 08:43:00,
2013-04-08 04:48:00,54.6,51.4,30.10,West,276,1.0,3.0,89,0.00,,,0.00,Wunderground v.1.15,2013-04-08 08:48:00,
2013-04-08 04:53:00,54.8,51.6,30.10,SW,235,0.0,3.0,89,0.00,,,0.00,Wunderground v.1.15,2013-04-08 08:53:00,
2013-04-08 04:58:00,54.8,51.6,30.11,WSW,250,0.0,3.0,89,0.00,,,0.00,Wunderground v.1.15,2013-04-08 08:58:00,
2013-04-08 05:03:00,54.7,51.2,30.11,SW,228,0.0,1.0,88,0.00,,,0.00,Wunderground v.1.15,2013-04-08 09:03:00,
2013-04-08 05:08:00,54.9,51.7,30.11,WSW,240,1.0,3.0,89,0.00,,,0.00,Wunderground v.1.15,2013-04-08 09:08:00,
2013-04-08 05:13:00,55.2,51.7,30.11,SW,225,0.0,3.0,88,0.00,,,0.00,Wunderground v.1.15,2013-04-08 09:13:00,
2013-04-08 05:18:00,55.3,51.8,30.11,WSW,245,1.0,3.0,88,0.00,,,0.00,Wunderground v.1.15,2013-04-08 09:18:00,
2013-04-08 05:23:00,55.2,51.7,30.11,WSW,239,1.0,2.0,88,0.00,,,0.00,Wunderground v.1.15,2013-04-08 09:23:00,
2013-04-08 05:28:00,55.0,51.5,30.11,SW,235,0.0,2.0,88,0.00,,,0.00,Wunderground v.1.15,2013-04-08 09:28:00,
2013-04-08 05:33:00,54.9,51.7,30.11,SW,214,0.0,2.0,89,0.00,,,0.00,Wunderground v.1.15,2013-04-08 09:33:00,
2013-04-08 05:38:00,54.8,51.6,30.11,WSW,238,0.0,2.0,89,0.00,,,0.00,Wunderground v.1.15,2013-04-08 09:38:00,
2013-04-08 05:43:00,54.7,51.5,30.12,North,356,1.0,2.0,89,0.00,,,0.00,Wunderground v.1.15,2013-04-08 09:43:00,
2013-04-08 05:48:00,54.5,51.6,30.12,NNW,344,0.0,2.0,90,0.00,,,0.00,Wunderground v.1.15,2013-04-08 09:48:00,
2013-04-08 05:53:00,54.5,51.6,30.12,West,267,0.0,1.0,90,0.00,,,0.00,Wunderground v.1.15,2013-04-08 09:53:00,
2013-04-08 05:58:00,54.4,51.5,30.12,West,266,0.0,1.0,90,0.00,,,0.00,Wunderground v.1.15,2013-04-08 09:58:00,
2013-04-08 06:03:00,54.0,51.1,30.12,West,267,0.0,0.0,90,0.00,,,0.00,Wunderground v.1.15,2013-04-08 10:03:00,
2013-04-08 06:08:00,53.7,51.1,30.12,West,267,0.0,0.0,91,0.00,,,0.00,Wunderground v.1.15,2013-04-08 10:08:00,
2013-04-08 06:13:00,53.5,50.9,30.12,West,267,0.0,0.0,91,0.00,,,0.00,Wunderground v.1.15,2013-04-08 10:13:00,
2013-04-08 06:18:00,53.1,50.5,30.12,West,267,0.0,0.0,91,0.00,,,0.00,Wunderground v.1.15,2013-04-08 10:18:00,
2013-04-08 06:23:00,52.6,50.0,30.12,West,267,0.0,0.0,91,0.00,,,0.00,Wunderground v.1.15,2013-04-08 10:23:00,
2013-04-08 06:28:00,52.2,49.9,30.12,West,267,0.0,1.0,92,0.00,,,0.00,Wunderground v.1.15,2013-04-08 10:28:00,
2013-04-08 06:33:00,51.9,49.6,30.13,West,267,0.0,1.0,92,0.00,,,0.00,Wunderground v.1.15,2013-04-08 10:33:00,
2013-04-08 06:38:00,51.6,49.6,30.13,NW,305,0.0,1.0,93,0.00,,,0.00,Wunderground v.1.15,2013-04-08 10:38:00,
2013-04-08 06:43:00,51.2,49.2,30.13,NW,307,0.0,0.0,93,0.00,,,0.00,Wunderground v.1.15,2013-04-08 10:43:00,
2013-04-08 06:48:00,51.1,49.4,30.13,NW,305,0.0,0.0,94,0.00,,,0.00,Wunderground v.1.15,2013-04-08 10:48:00,
2013-04-08 06:53:00,50.8,48.8,30.13,NW,305,0.0,0.0,93,0.00,,,0.00,Wunderground v.1.15,2013-04-08 10:53:00,
2013-04-08 06:58:00,50.6,48.9,30.13,NW,305,0.0,0.0,94,0.00,,,0.00,Wunderground v.1.15,2013-04-08 10:58:00,
2013-04-08 07:03:00,50.3,48.6,30.14,NW,305,0.0,0.0,94,0.00,,,0.00,Wunderground v.1.15,2013-04-08 11:03:00,
2013-04-08 07:08:00,50.0,48.3,30.14,NW,307,0.0,1.0,94,0.00,,,0.00,Wunderground v.1.15,2013-04-08 11:08:00,
2013-04-08 07:13:00,50.0,48.6,30.14,NW,307,0.0,0.0,95,0.00,,,0.00,Wunderground v.1.15,2013-04-08 11:13:00,
2013-04-08 07:18:00,50.1,48.7,30.14,NW,307,0.0,0.0,95,0.00,,,0.00,Wunderground v.1.15,2013-04-08 11:18:00,
2013-04-08 07:23:00,50.5,49.4,30.14,NW,306,0.0,0.0,96,0.00,,,0.00,Wunderground v.1.15,2013-04-08 11:23:00,
2013-04-08 07:28:00,50.6,49.5,30.14,NW,305,0.0,0.0,96,0.00,,,0.00,Wunderground v.1.15,2013-04-08 11:28:00,
2013-04-08 07:33:00,51.0,50.2,30.14,NW,305,0.0,0.0,97,0.00,,,0.00,Wunderground v.1.15,2013-04-08 11:33:00,
2013-04-08 07:38:00,51.4,50.3,30.15,NNE,13,0.0,0.0,96,0.00,,,0.00,Wunderground v.1.15,2013-04-08 11:38:00,
2013-04-08 07:44:00,52.1,51.0,30.15,West,263,1.0,1.0,96,0.00,,,0.00,Wunderground v.1.15,2013-04-08 11:44:00,
2013-04-08 07:49:00,53.0,51.9,30.15,WSW,239,1.0,1.0,96,0.00,,,0.00,Wunderground v.1.15,2013-04-08 11:49:00,
2013-04-08 07:54:00,53.8,52.1,30.15,WSW,255,2.0,6.0,94,0.00,,,0.00,Wunderground v.1.15,2013-04-08 11:54:00,
2013-04-08 07:59:00,54.7,52.7,30.15,West,260,0.0,1.0,93,0.00,,,0.00,Wunderground v.1.15,2013-04-08 11:59:00,
2013-04-08 08:04:00,55.5,53.2,30.15,West,274,3.0,3.0,92,0.00,,,0.00,Wunderground v.1.15,2013-04-08 12:04:00,
2013-04-08 08:09:00,56.4,53.5,30.15,West,269,1.0,1.0,90,0.00,,,0.00,Wunderground v.1.15,2013-04-08 12:09:00,
2013-04-08 08:14:00,57.2,54.0,30.15,SW,218,1.0,4.0,89,0.00,,,0.00,Wunderground v.1.15,2013-04-08 12:14:00,
2013-04-08 08:19:00,57.8,54.3,30.15,West,262,2.0,2.0,88,0.00,,,0.00,Wunderground v.1.15,2013-04-08 12:19:00,
2013-04-08 08:24:00,58.4,54.2,30.15,WSW,248,3.0,6.0,86,0.00,,,0.00,Wunderground v.1.15,2013-04-08 12:24:00,
2013-04-08 08:29:00,58.9,54.7,30.15,West,260,2.0,7.0,86,0.00,,,0.00,Wunderground v.1.15,2013-04-08 12:29:00,
2013-04-08 08:34:00,59.5,55.0,30.15,WSW,248,1.0,7.0,85,0.00,,,0.00,Wunderground v.1.15,2013-04-08 12:34:00,
2013-04-08 08:39:00,59.9,55.1,30.15,West,275,3.0,6.0,84,0.00,,,0.00,Wunderground v.1.15,2013-04-08 12:39:00,
2013-04-08 08:44:00,60.2,55.0,30.15,SW,224,3.0,8.0,83,0.00,,,0.00,Wunderground v.1.15,2013-04-08 12:44:00,
2013-04-08 08:49:00,60.6,55.1,30.15,SW,231,2.0,4.0,82,0.00,,,0.00,Wunderground v.1.15,2013-04-08 12:49:00,
2013-04-08 08:54:00,60.8,55.3,30.15,SSW,210,1.0,4.0,82,0.00,,,0.00,Wunderground v.1.15,2013-04-08 12:54:00,
2013-04-08 08:59:00,60.8,54.9,30.15,West,270,2.0,3.0,81,0.00,,,0.00,Wunderground v.1.15,2013-04-08 12:59:00,
2013-04-08 09:04:00,60.9,55.0,30.15,West,262,2.0,10.0,81,0.00,,,0.00,Wunderground v.1.15,2013-04-08 13:04:00,
2013-04-08 09:09:00,61.2,55.0,30.15,West,267,6.0,8.0,80,0.00,,,0.00,Wunderground v.1.15,2013-04-08 13:09:00,
2013-04-08 09:14:00,61.4,55.2,30.15,West,264,1.0,8.0,80,0.00,,,0.00,Wunderground v.1.15,2013-04-08 13:14:00,
2013-04-08 09:19:00,61.7,55.1,30.15,WSW,248,2.0,4.0,79,0.00,,,0.00,Wunderground v.1.15,2013-04-08 13:19:00,
2013-04-08 09:24:00,62.1,55.2,30.15,WSW,252,3.0,7.0,78,0.00,,,0.00,Wunderground v.1.15,2013-04-08 13:24:00,
2013-04-08 09:29:00,62.4,55.8,30.15,West,278,5.0,5.0,79,0.00,,,0.00,Wunderground v.1.15,2013-04-08 13:29:00,
2013-04-08 09:34:00,62.6,55.6,30.15,West,269,3.0,9.0,78,0.00,,,0.00,Wunderground v.1.15,2013-04-08 13:34:00,
2013-04-08 09:39:00,62.6,55.6,30.15,WSW,243,3.0,5.0,78,0.00,,,0.00,Wunderground v.1.15,2013-04-08 13:39:00,
2013-04-08 09:45:00,62.7,55.4,30.15,West,280,3.0,7.0,77,0.00,,,0.00,Wunderground v.1.15,2013-04-08 13:45:00,
2013-04-08 09:50:00,62.9,55.6,30.15,WSW,257,2.0,4.0,77,0.00,,,0.00,Wunderground v.1.15,2013-04-08 13:50:00,
2013-04-08 09:55:00,63.3,55.6,30.15,West,276,1.0,4.0,76,0.00,,,0.00,Wunderground v.1.15,2013-04-08 13:55:00,
2013-04-08 10:00:00,63.5,55.8,30.15,West,270,4.0,5.0,76,0.00,,,0.00,Wunderground v.1.15,2013-04-08 14:00:00,
2013-04-08 10:05:00,63.9,55.8,30.15,West,281,3.0,5.0,75,0.00,,,0.00,Wunderground v.1.15,2013-04-08 14:05:00,
2013-04-08 10:10:00,64.2,56.1,30.15,West,266,5.0,5.0,75,0.00,,,0.00,Wunderground v.1.15,2013-04-08 14:10:00,
2013-04-08 10:15:00,64.7,56.2,30.15,West,264,5.0,8.0,74,0.00,,,0.00,Wunderground v.1.15,2013-04-08 14:15:00,
2013-04-08 10:20:00,65.0,56.1,30.15,SSE,152,1.0,6.0,73,0.00,,,0.00,Wunderground v.1.15,2013-04-08 14:20:00,
2013-04-08 10:25:00,65.8,56.9,30.15,SW,235,1.0,6.0,73,0.00,,,0.00,Wunderground v.1.15,2013-04-08 14:25:00,
2013-04-08 10:30:00,66.4,56.7,30.15,SW,229,7.0,8.0,71,0.00,,,0.00,Wunderground v.1.15,2013-04-08 14:30:00,
2013-04-08 10:35:00,66.4,56.3,30.15,WNW,294,4.0,10.0,70,0.00,,,0.00,Wunderground v.1.15,2013-04-08 14:35:00,
2013-04-08 10:41:00,66.4,56.3,30.15,WNW,283,5.0,7.0,70,0.00,,,0.00,Wunderground v.1.15,2013-04-08 14:41:00,
2013-04-08 10:46:00,66.8,56.7,30.15,West,262,4.0,8.0,70,0.00,,,0.00,Wunderground v.1.15,2013-04-08 14:46:00,
2013-04-08 10:51:00,66.8,56.3,30.15,WSW,238,3.0,9.0,69,0.00,,,0.00,Wunderground v.1.15,2013-04-08 14:51:00,
2013-04-08 10:55:00,67.3,57.6,30.15,West,280,8.0,9.0,71,0.00,,,0.00,Wunderground v.1.15,2013-04-08 14:55:00,
2013-04-08 11:01:00,67.6,56.7,30.15,West,273,7.0,8.0,68,0.00,,,0.00,Wunderground v.1.15,2013-04-08 15:01:00,
2013-04-08 11:06:00,67.5,57.0,30.15,West,260,3.0,9.0,69,0.00,,,0.00,Wunderground v.1.15,2013-04-08 15:06:00,
2013-04-08 11:11:00,67.9,56.5,30.15,SW,222,3.0,8.0,67,0.00,,,0.00,Wunderground v.1.15,2013-04-08 15:11:00,
2013-04-08 11:16:00,68.5,57.1,30.14,WSW,240,4.0,8.0,67,0.00,,,0.00,Wunderground v.1.15,2013-04-08 15:16:00,
2013-04-08 11:21:00,68.8,57.8,30.15,South,190,3.0,7.0,68,0.00,,,0.00,Wunderground v.1.15,2013-04-08 15:21:00,
2013-04-08 11:26:00,69.5,57.2,30.15,WSW,248,6.0,8.0,65,0.00,,,0.00,Wunderground v.1.15,2013-04-08 15:26:00,
2013-04-08 11:32:00,69.9,58.0,30.15,WSW,246,6.0,9.0,66,0.00,,,0.00,Wunderground v.1.15,2013-04-08 15:32:00,
2013-04-08 11:37:00,69.9,56.7,30.15,WSW,242,5.0,11.0,63,0.00,,,0.00,Wunderground v.1.15,2013-04-08 15:37:00,
2013-04-08 11:42:00,69.6,56.4,30.14,West,266,6.0,12.0,63,0.00,,,0.00,Wunderground v.1.15,2013-04-08 15:42:00,
2013-04-08 11:47:00,70.2,57.9,30.14,SSW,210,4.0,12.0,65,0.00,,,0.00,Wunderground v.1.15,2013-04-08 15:47:00,
2013-04-08 11:52:00,70.8,57.1,30.14,West,277,6.0,7.0,62,0.00,,,0.00,Wunderground v.1.15,2013-04-08 15:52:00,
2013-04-08 11:57:00,71.0,57.8,30.14,West,264,6.0,7.0,63,0.00,,,0.00,Wunderground v.1.15,2013-04-08 15:57:00,
2013-04-08 12:02:00,71.5,57.3,30.14,SSW,195,3.0,8.0,61,0.00,,,0.00,Wunderground v.1.15,2013-04-08 16:02:00,
2013-04-08 12:07:00,71.9,56.8,30.14,SW,226,4.0,5.0,59,0.00,,,0.00,Wunderground v.1.15,2013-04-08 16:07:00,
2013-04-08 12:12:00,72.2,56.6,30.14,WSW,254,10.0,10.0,58,0.00,,,0.00,Wunderground v.1.15,2013-04-08 16:12:00,
2013-04-08 12:18:00,72.6,56.5,30.13,SW,225,1.0,4.0,57,0.00,,,0.00,Wunderground v.1.15,2013-04-08 16:18:00,
2013-04-08 12:23:00,72.7,56.6,30.13,South,188,3.0,13.0,57,0.00,,,0.00,Wunderground v.1.15,2013-04-08 16:23:00,
2013-04-08 12:28:00,72.9,56.3,30.12,WSW,238,2.0,5.0,56,0.00,,,0.00,Wunderground v.1.15,2013-04-08 16:28:00,
2013-04-08 12:33:00,73.3,57.1,30.13,WSW,238,4.0,9.0,57,0.00,,,0.00,Wunderground v.1.15,2013-04-08 16:33:00,
2013-04-08 12:38:00,73.5,56.3,30.12,West,269,3.0,7.0,55,0.00,,,0.00,Wunderground v.1.15,2013-04-08 16:38:00,
2013-04-08 12:43:00,73.6,56.4,30.11,West,259,3.0,7.0,55,0.00,,,0.00,Wunderground v.1.15,2013-04-08 16:43:00,
2013-04-08 12:48:00,74.1,56.9,30.11,SW,231,1.0,7.0,55,0.00,,,0.00,Wunderground v.1.15,2013-04-08 16:48:00,
2013-04-08 12:53:00,74.3,56.6,30.11,SSW,193,4.0,10.0,54,0.00,,,0.00,Wunderground v.1.15,2013-04-08 16:53:00,
2013-04-08 12:58:00,74.2,56.5,30.11,NNW,344,3.0,5.0,54,0.00,,,0.00,Wunderground v.1.15,2013-04-08 16:58:00,
2013-04-08 13:03:00,74.3,56.1,30.11,West,266,2.0,10.0,53,0.00,,,0.00,Wunderground v.1.15,2013-04-08 17:03:00,
2013-04-08 13:08:00,73.8,56.1,30.11,WNW,293,2.0,8.0,54,0.00,,,0.00,Wunderground v.1.15,2013-04-08 17:08:00,
2013-04-08 13:13:00,74.1,55.9,30.11,WSW,257,6.0,11.0,53,0.00,,,0.00,Wunderground v.1.15,2013-04-08 17:13:00,
2013-04-08 13:18:00,73.4,55.2,30.10,WSW,249,6.0,7.0,53,0.00,,,0.00,Wunderground v.1.15,2013-04-08 17:18:00,
2013-04-08 13:23:00,73.9,55.7,30.10,SSW,197,6.0,11.0,53,0.00,,,0.00,Wunderground v.1.15,2013-04-08 17:23:00,
2013-04-08 13:28:00,74.6,56.3,30.10,WSW,256,1.0,5.0,53,0.00,,,0.00,Wunderground v.1.15,2013-04-08 17:28:00,
2013-04-08 13:33:00,74.8,55.5,30.10,WSW,246,3.0,14.0,51,0.00,,,0.00,Wunderground v.1.15,2013-04-08 17:33:00,
2013-04-08 13:38:00,74.0,55.3,30.10,WSW,256,5.0,9.0,52,0.00,,,0.00,Wunderground v.1.15,2013-04-08 17:38:00,
2013-04-08 13:43:00,74.3,56.6,30.09,South,186,3.0,11.0,54,0.00,,,0.00,Wunderground v.1.15,2013-04-08 17:43:00,
2013-04-08 13:48:00,75.3,55.9,30.09,West,269,4.0,6.0,51,0.00,,,0.00,Wunderground v.1.15,2013-04-08 17:48:00,
2013-04-08 13:53:00,75.5,55.6,30.08,SSW,207,3.0,8.0,50,0.00,,,0.00,Wunderground v.1.15,2013-04-08 17:53:00,
2013-04-08 13:59:00,75.0,56.2,30.08,WSW,245,7.0,7.0,52,0.00,,,0.00,Wunderground v.1.15,2013-04-08 17:59:00,
2013-04-08 14:04:00,74.6,55.3,30.08,WNW,302,2.0,9.0,51,0.00,,,0.00,Wunderground v.1.15,2013-04-08 18:04:00,
2013-04-08 14:09:00,74.5,55.2,30.08,West,277,2.0,9.0,51,0.00,,,0.00,Wunderground v.1.15,2013-04-08 18:09:00,
2013-04-08 14:14:00,74.2,54.9,30.08,West,273,6.0,11.0,51,0.00,,,0.00,Wunderground v.1.15,2013-04-08 18:14:00,
2013-04-08 14:19:00,74.8,56.0,30.08,West,264,3.0,6.0,52,0.00,,,0.00,Wunderground v.1.15,2013-04-08 18:19:00,
2013-04-08 14:24:00,75.6,55.1,30.08,West,271,1.0,12.0,49,0.00,,,0.00,Wunderground v.1.15,2013-04-08 18:24:00,
2013-04-08 14:29:00,75.4,55.5,30.08,SSW,200,5.0,10.0,50,0.00,,,0.00,Wunderground v.1.15,2013-04-08 18:29:00,
2013-04-08 14:34:00,75.6,55.6,30.07,WNW,284,3.0,10.0,50,0.00,,,0.00,Wunderground v.1.15,2013-04-08 18:34:00,
2013-04-08 14:39:00,76.3,55.7,30.07,WSW,238,3.0,8.0,49,0.00,,,0.00,Wunderground v.1.15,2013-04-08 18:39:00,
2013-04-08 14:44:00,76.4,55.3,30.07,WNW,284,4.0,9.0,48,0.00,,,0.00,Wunderground v.1.15,2013-04-08 18:44:00,
2013-04-08 14:49:00,76.6,55.4,30.07,WNW,294,3.0,9.0,48,0.00,,,0.00,Wunderground v.1.15,2013-04-08 18:49:00,
2013-04-08 14:54:00,77.1,55.9,30.06,SW,221,2.0,9.0,48,0.00,,,0.00,Wunderground v.1.15,2013-04-08 18:54:00,
2013-04-08 15:00:00,77.2,54.2,30.06,NW,321,3.0,11.0,45,0.00,,,0.00,Wunderground v.1.15,2013-04-08 19:00:00,
2013-04-08 15:05:00,77.3,53.1,30.06,SW,226,2.0,11.0,43,0.00,,,0.00,Wunderground v.1.15,2013-04-08 19:05:00,
2013-04-08 15:10:00,77.9,54.8,30.05,SW,215,6.0,7.0,45,0.00,,,0.00,Wunderground v.1.15,2013-04-08 19:10:00,
2013-04-08 15:15:00,77.8,54.8,30.05,West,281,5.0,8.0,45,0.00,,,0.00,Wunderground v.1.15,2013-04-08 19:15:00,
2013-04-08 15:20:00,77.7,55.3,30.05,South,170,4.0,5.0,46,0.00,,,0.00,Wunderground v.1.15,2013-04-08 19:20:00,
2013-04-08 15:25:00,77.4,56.2,30.05,SSW,206,2.0,8.0,48,0.00,,,0.00,Wunderground v.1.15,2013-04-08 19:25:00,
2013-04-08 15:30:00,77.8,54.1,30.04,SW,233,4.0,11.0,44,0.00,,,0.00,Wunderground v.1.15,2013-04-08 19:30:00,
2013-04-08 15:35:00,77.1,52.9,30.05,SSE,158,1.0,11.0,43,0.00,,,0.00,Wunderground v.1.15,2013-04-08 19:35:00,
2013-04-08 15:40:00,77.1,54.1,30.05,SSW,195,4.0,5.0,45,0.00,,,0.00,Wunderground v.1.15,2013-04-08 19:40:00,
2013-04-08 15:45:00,77.5,54.5,30.04,SE,135,6.0,9.0,45,0.00,,,0.00,Wunderground v.1.15,2013-04-08 19:45:00,
2013-04-08 15:50:00,77.5,55.1,30.04,WSW,253,4.0,7.0,46,0.00,,,0.00,Wunderground v.1.15,2013-04-08 19:50:00,
2013-04-08 15:55:00,77.0,54.6,30.04,SSW,193,4.0,7.0,46,0.00,,,0.00,Wunderground v.1.15,2013-04-08 19:55:00,
2013-04-08 16:00:00,76.5,53.6,30.04,West,278,2.0,8.0,45,0.00,,,0.00,Wunderground v.1.15,2013-04-08 20:00:00,
2013-04-08 16:05:00,76.6,54.3,30.03,SW,229,3.0,8.0,46,0.00,,,0.00,Wunderground v.1.15,2013-04-08 20:05:00,
2013-04-08 16:10:00,76.4,54.1,30.03,South,172,3.0,9.0,46,0.00,,,0.00,Wunderground v.1.15,2013-04-08 20:10:00,
2013-04-08 16:15:00,76.1,55.0,30.04,WNW,284,3.0,9.0,48,0.00,,,0.00,Wunderground v.1.15,2013-04-08 20:15:00,
2013-04-08 16:20:00,76.0,54.3,30.03,SW,235,3.0,8.0,47,0.00,,,0.00,Wunderground v.1.15,2013-04-08 20:20:00,
2013-04-08 16:25:00,76.0,54.9,30.03,West,262,7.0,8.0,48,0.00,,,0.00,Wunderground v.1.15,2013-04-08 20:25:00,
2013-04-08 16:30:00,76.2,55.1,30.03,SW,233,3.0,6.0,48,0.00,,,0.00,Wunderground v.1.15,2013-04-08 20:30:00,
2013-04-08 16:35:00,76.4,55.3,30.03,SW,229,4.0,9.0,48,0.00,,,0.00,Wunderground v.1.15,2013-04-08 20:35:00,
2013-04-08 16:40:00,76.6,56.6,30.03,SW,235,4.0,5.0,50,0.00,,,0.00,Wunderground v.1.15,2013-04-08 20:40:00,
2013-04-08 16:45:00,76.8,55.6,30.03,South,174,7.0,10.0,48,0.00,,,0.00,Wunderground v.1.15,2013-04-08 20:45:00,
2013-04-08 16:51:00,76.5,55.3,30.02,West,281,10.0,10.0,48,0.00,,,0.00,Wunderground v.1.15,2013-04-08 20:51:00,
2013-04-08 16:56:00,76.6,57.1,30.02,WSW,255,9.0,9.0,51,0.00,,,0.00,Wunderground v.1.15,2013-04-08 20:56:00,
2013-04-08 17:01:00,77.0,55.8,30.02,SSE,168,2.0,9.0,48,0.00,,,0.00,Wunderground v.1.15,2013-04-08 21:01:00,
2013-04-08 17:06:00,76.7,56.1,30.03,West,277,7.0,7.0,49,0.00,,,0.00,Wunderground v.1.15,2013-04-08 21:06:00,
2013-04-08 17:11:00,76.3,55.2,30.03,West,263,4.0,10.0,48,0.00,,,0.00,Wunderground v.1.15,2013-04-08 21:11:00,
2013-04-08 17:16:00,76.7,55.0,30.02,West,273,3.0,5.0,47,0.00,,,0.00,Wunderground v.1.15,2013-04-08 21:16:00,
2013-04-08 17:21:00,77.4,55.6,30.02,SW,224,1.0,5.0,47,0.00,,,0.00,Wunderground v.1.15,2013-04-08 21:21:00,
2013-04-08 17:26:00,77.7,55.3,30.02,SW,225,9.0,9.0,46,0.00,,,0.00,Wunderground v.1.15,2013-04-08 21:26:00,
2013-04-08 17:31:00,77.2,54.8,30.02,West,281,3.0,10.0,46,0.00,,,0.00,Wunderground v.1.15,2013-04-08 21:31:00,
2013-04-08 17:36:00,76.6,54.9,30.03,SSW,211,3.0,5.0,47,0.00,,,0.00,Wunderground v.1.15,2013-04-08 21:36:00,
2013-04-08 17:41:00,76.5,54.8,30.03,SW,226,4.0,11.0,47,0.00,,,0.00,Wunderground v.1.15,2013-04-08 21:41:00,
2013-04-08 17:47:00,76.7,55.5,30.02,WNW,284,4.0,5.0,48,0.00,,,0.00,Wunderground v.1.15,2013-04-08 21:47:00,
2013-04-08 17:52:00,76.5,54.8,30.03,West,269,3.0,8.0,47,0.00,,,0.00,Wunderground v.1.15,2013-04-08 21:52:00,
2013-04-08 17:57:00,76.5,55.3,30.03,SW,224,2.0,4.0,48,0.00,,,0.00,Wunderground v.1.15,2013-04-08 21:57:00,
2013-04-08 18:02:00,76.9,55.1,30.02,SW,224,2.0,8.0,47,0.00,,,0.00,Wunderground v.1.15,2013-04-08 22:02:00,
2013-04-08 18:07:00,77.0,55.2,30.02,ESE,113,2.0,5.0,47,0.00,,,0.00,Wunderground v.1.15,2013-04-08 22:07:00,
2013-04-08 18:12:00,77.1,54.7,30.02,SW,224,9.0,9.0,46,0.00,,,0.00,Wunderground v.1.15,2013-04-08 22:12:00,
2013-04-08 18:17:00,77.2,54.2,30.02,SW,218,3.0,6.0,45,0.00,,,0.00,Wunderground v.1.15,2013-04-08 22:17:00,
2013-04-08 18:22:00,77.1,53.5,30.02,WSW,243,5.0,12.0,44,0.00,,,0.00,Wunderground v.1.15,2013-04-08 22:22:00,
2013-04-08 18:27:00,77.1,54.7,30.02,WSW,238,1.0,4.0,46,0.00,,,0.00,Wunderground v.1.15,2013-04-08 22:27:00,
2013-04-08 18:32:00,77.2,54.2,30.02,South,190,6.0,9.0,45,0.00,,,0.00,Wunderground v.1.15,2013-04-08 22:32:00,
2013-04-08 18:37:00,77.1,53.5,30.03,SSW,193,4.0,6.0,44,0.00,,,0.00,Wunderground v.1.15,2013-04-08 22:37:00,
2013-04-08 18:42:00,76.9,53.9,30.03,NW,319,2.0,9.0,45,0.00,,,0.00,Wunderground v.1.15,2013-04-08 22:42:00,
2013-04-08 18:47:00,76.8,53.8,30.03,SSW,201,2.0,4.0,45,0.00,,,0.00,Wunderground v.1.15,2013-04-08 22:47:00,
2013-04-08 18:52:00,76.8,53.8,30.03,WNW,300,4.0,8.0,45,0.00,,,0.00,Wunderground v.1.15,2013-04-08 22:52:00,
2013-04-08 18:57:00,76.4,53.5,30.03,SW,217,4.0,6.0,45,0.00,,,0.00,Wunderground v.1.15,2013-04-08 22:57:00,
2013-04-08 19:02:00,76.0,53.7,30.03,SW,214,6.0,6.0,46,0.00,,,0.00,Wunderground v.1.15,2013-04-08 23:02:00,
2013-04-08 19:07:00,75.5,53.9,30.03,West,266,6.0,6.0,47,0.00,,,0.00,Wunderground v.1.15,2013-04-08 23:07:00,
2013-04-08 19:12:00,75.2,53.6,30.03,SSW,206,3.0,7.0,47,0.00,,,0.00,Wunderground v.1.15,2013-04-08 23:12:00,
2013-04-08 19:17:00,74.8,53.2,30.03,WSW,254,3.0,4.0,47,0.00,,,0.00,Wunderground v.1.15,2013-04-08 23:17:00,
2013-04-08 19:22:00,74.5,53.5,30.03,SSW,197,4.0,6.0,48,0.00,,,0.00,Wunderground v.1.15,2013-04-08 23:22:00,
2013-04-08 19:27:00,74.2,53.8,30.03,SW,227,3.0,3.0,49,0.00,,,0.00,Wunderground v.1.15,2013-04-08 23:27:00,
2013-04-08 19:33:00,73.7,53.9,30.03,SW,215,1.0,4.0,50,0.00,,,0.00,Wunderground v.1.15,2013-04-08 23:33:00,
2013-04-08 19:38:00,73.4,53.6,30.04,SSW,208,1.0,2.0,50,0.00,,,0.00,Wunderground v.1.15,2013-04-08 23:38:00,
2013-04-08 19:43:00,73.1,53.9,30.03,SE,143,0.0,6.0,51,0.00,,,0.00,Wunderground v.1.15,2013-04-08 23:43:00,
2013-04-08 19:48:00,72.7,53.5,30.03,WSW,238,2.0,2.0,51,0.00,,,0.00,Wunderground v.1.15,2013-04-08 23:48:00,
2013-04-08 19:53:00,72.6,53.4,30.03,SSW,211,3.0,5.0,51,0.00,,,0.00,Wunderground v.1.15,2013-04-08 23:53:00,
2013-04-08 19:58:00,72.4,53.2,30.04,SW,225,1.0,4.0,51,0.00,,,0.00,Wunderground v.1.15,2013-04-08 23:58:00,
2013-04-08 20:03:00,72.1,53.5,30.04,SW,221,2.0,4.0,52,0.00,,,0.00,Wunderground v.1.15,2013-04-09 00:03:00,
2013-04-08 20:08:00,71.8,53.2,30.04,SW,218,0.0,1.0,52,0.00,,,0.00,Wunderground v.1.15,2013-04-09 00:08:00,
2013-04-08 20:13:00,71.4,53.4,30.04,SW,215,0.0,2.0,53,0.00,,,0.00,Wunderground v.1.15,2013-04-09 00:13:00,
2013-04-08 20:18:00,70.9,53.4,30.04,SW,214,0.0,1.0,54,0.00,,,0.00,Wunderground v.1.15,2013-04-09 00:18:00,
2013-04-08 20:23:00,70.6,53.6,30.04,SSE,153,0.0,2.0,55,0.00,,,0.00,Wunderground v.1.15,2013-04-09 00:23:00,
2013-04-08 20:28:00,70.3,53.4,30.04,SSW,207,1.0,2.0,55,0.00,,,0.00,Wunderground v.1.15,2013-04-09 00:28:00,
2013-04-08 20:33:00,69.9,53.5,30.05,SW,232,1.0,3.0,56,0.00,,,0.00,Wunderground v.1.15,2013-04-09 00:33:00,
2013-04-08 20:38:00,69.8,53.4,30.05,WSW,242,2.0,2.0,56,0.00,,,0.00,Wunderground v.1.15,2013-04-09 00:38:00,
2013-04-08 20:43:00,69.8,53.9,30.05,WNW,295,1.0,3.0,57,0.00,,,0.00,Wunderground v.1.15,2013-04-09 00:43:00,
2013-04-08 20:48:00,69.8,53.4,30.05,WSW,238,1.0,1.0,56,0.00,,,0.00,Wunderground v.1.15,2013-04-09 00:48:00,
2013-04-08 20:53:00,69.6,53.7,30.05,SW,224,1.0,2.0,57,0.00,,,0.00,Wunderground v.1.15,2013-04-09 00:53:00,
2013-04-08 20:58:00,69.4,53.5,30.05,SW,235,1.0,3.0,57,0.00,,,0.00,Wunderground v.1.15,2013-04-09 00:58:00,
2013-04-08 21:03:00,69.2,53.3,30.05,SSW,211,0.0,3.0,57,0.00,,,0.00,Wunderground v.1.15,2013-04-09 01:03:00,
2013-04-08 21:08:00,68.8,53.4,30.05,SSW,211,0.0,0.0,58,0.00,,,0.00,Wunderground v.1.15,2013-04-09 01:08:00,
2013-04-08 21:13:00,68.4,53.0,30.05,SW,235,0.0,0.0,58,0.00,,,0.00,Wunderground v.1.15,2013-04-09 01:13:00,
2013-04-08 21:18:00,68.3,53.4,30.06,SW,235,0.0,0.0,59,0.00,,,0.00,Wunderground v.1.15,2013-04-09 01:18:00,
2013-04-08 21:23:00,67.9,53.0,30.06,WSW,237,0.0,0.0,59,0.00,,,0.00,Wunderground v.1.15,2013-04-09 01:23:00,
2013-04-08 21:28:00,67.5,53.1,30.06,WSW,239,0.0,0.0,60,0.00,,,0.00,Wunderground v.1.15,2013-04-09 01:28:00,
2013-04-08 21:33:00,67.0,53.1,30.07,WSW,239,0.0,0.0,61,0.00,,,0.00,Wunderground v.1.15,2013-04-09 01:33:00,
2013-04-08 21:38:00,66.7,53.3,30.07,South,189,0.0,0.0,62,0.00,,,0.00,Wunderground v.1.15,2013-04-09 01:38:00,
2013-04-08 21:43:00,66.5,53.1,30.07,South,188,0.0,0.0,62,0.00,,,0.00,Wunderground v.1.15,2013-04-09 01:43:00,
2013-04-08 21:48:00,66.1,54.0,30.07,South,189,0.0,0.0,65,0.00,,,0.00,Wunderground v.1.15,2013-04-09 01:48:00,
2013-04-08 21:53:00,65.5,53.0,30.07,WSW,252,0.0,0.0,64,0.00,,,0.00,Wunderground v.1.15,2013-04-09 01:53:00,
2013-04-08 21:58:00,65.4,52.9,30.07,WSW,252,0.0,0.0,64,0.00,,,0.00,Wunderground v.1.15,2013-04-09 01:58:00,
2013-04-08 22:03:00,65.7,52.8,30.07,SW,228,0.0,2.0,63,0.00,,,0.00,Wunderground v.1.15,2013-04-09 02:03:00,
2013-04-08 22:08:00,65.9,53.4,30.07,SW,228,0.0,1.0,64,0.00,,,0.00,Wunderground v.1.15,2013-04-09 02:08:00,
2013-04-08 22:13:00,66.0,53.0,30.06,West,263,0.0,1.0,63,0.00,,,0.00,Wunderground v.1.15,2013-04-09 02:13:00,
2013-04-08 22:18:00,66.4,53.0,30.06,SW,221,0.0,1.0,62,0.00,,,0.00,Wunderground v.1.15,2013-04-09 02:18:00,
2013-04-08 22:23:00,66.6,53.2,30.06,WSW,242,0.0,1.0,62,0.00,,,0.00,Wunderground v.1.15,2013-04-09 02:23:00,
2013-04-08 22:29:00,66.5,53.1,30.06,WSW,249,1.0,1.0,62,0.00,,,0.00,Wunderground v.1.15,2013-04-09 02:29:00,
2013-04-08 22:34:00,66.6,53.2,30.06,SSW,207,1.0,2.0,62,0.00,,,0.00,Wunderground v.1.15,2013-04-09 02:34:00,
2013-04-08 22:39:00,66.9,53.0,30.06,South,181,0.0,3.0,61,0.00,,,0.00,Wunderground v.1.15,2013-04-09 02:39:00,
2013-04-08 22:44:00,67.1,53.2,30.06,West,269,0.0,3.0,61,0.00,,,0.00,Wunderground v.1.15,2013-04-09 02:44:00,
2013-04-08 22:49:00,67.2,53.3,30.05,SSW,213,3.0,3.0,61,0.00,,,0.00,Wunderground v.1.15,2013-04-09 02:49:00,
2013-04-08 22:54:00,67.3,52.9,30.05,West,267,1.0,4.0,60,0.00,,,0.00,Wunderground v.1.15,2013-04-09 02:54:00,
2013-04-08 22:59:00,67.7,53.3,30.06,SSW,212,2.0,4.0,60,0.00,,,0.00,Wunderground v.1.15,2013-04-09 02:59:00,
2013-04-08 23:04:00,67.8,52.9,30.05,WSW,252,1.0,4.0,59,0.00,,,0.00,Wunderground v.1.15,2013-04-09 03:04:00,
2013-04-08 23:09:00,67.7,52.9,30.05,WSW,240,1.0,5.0,59,0.00,,,0.00,Wunderground v.1.15,2013-04-09 03:09:00,
2013-04-08 23:14:00,67.6,52.8,30.05,SSW,194,1.0,6.0,59,0.00,,,0.00,Wunderground v.1.15,2013-04-09 03:14:00,
2013-04-08 23:19:00,67.4,53.0,30.05,West,263,2.0,2.0,60,0.00,,,0.00,Wunderground v.1.15,2013-04-09 03:19:00,
2013-04-08 23:24:00,67.2,52.8,30.06,WSW,257,1.0,4.0,60,0.00,,,0.00,Wunderground v.1.15,2013-04-09 03:24:00,
2013-04-08 23:29:00,67.2,52.8,30.06,West,262,1.0,3.0,60,0.00,,,0.00,Wunderground v.1.15,2013-04-09 03:29:00,
2013-04-08 23:34:00,67.1,53.2,30.06,WSW,248,1.0,3.0,61,0.00,,,0.00,Wunderground v.1.15,2013-04-09 03:34:00,
2013-04-08 23:39:00,66.9,53.0,30.06,SW,218,0.0,1.0,61,0.00,,,0.00,Wunderground v.1.15,2013-04-09 03:39:00,
2013-04-08 23:45:00,66.6,52.7,30.06,SW,224,0.0,2.0,61,0.00,,,0.00,Wunderground v.1.15,2013-04-09 03:45:00,
2013-04-08 23:50:00,66.3,52.9,30.06,West,271,1.0,2.0,62,0.00,,,0.00,Wunderground v.1.15,2013-04-09 03:50:00,
2013-04-08 23:55:00,66.0,52.6,30.06,WSW,246,0.0,2.0,62,0.00,,,0.00,Wunderground v.1.15,2013-04-09 03:55:00,